sensor_id;sensor_type;location;lat;lon;timestamp;pressure;altitude;pressure_sealevel;temperature;humidity
40245;BME280;25963;42.694;23.600;2023-07-28T00:02:15;95293.81;;;14.83;77.80
40245;BME280;25963;42.694;23.600;2023-07-28T00:04:41;95284.47;;;14.98;77.10
40245;BME280;25963;42.694;23.600;2023-07-28T00:07:06;95284.00;;;15.01;76.19
40245;BME280;25963;42.694;23.600;2023-07-28T00:09:32;95288.03;;;15.03;79.28
40245;BME280;25963;42.694;23.600;2023-07-28T00:11:58;95300.66;;;15.30;76.86
40245;BME280;25963;42.694;23.600;2023-07-28T00:14:24;95304.63;;;15.11;78.84
40245;BME280;25963;42.694;23.600;2023-07-28T00:16:54;95292.44;;;14.98;78.85
40245;BME280;25963;42.694;23.600;2023-07-28T00:19:20;95292.25;;;14.71;81.17
40245;BME280;25963;42.694;23.600;2023-07-28T00:21:47;95302.66;;;14.72;80.57
40245;BME280;25963;42.694;23.600;2023-07-28T00:24:13;95293.53;;;14.68;77.56
40245;BME280;25963;42.694;23.600;2023-07-28T00:26:38;95310.38;;;14.74;77.67
40245;BME280;25963;42.694;23.600;2023-07-28T00:29:04;95293.22;;;14.65;77.54
40245;BME280;25963;42.694;23.600;2023-07-28T00:31:32;95306.28;;;14.66;77.21
40245;BME280;25963;42.694;23.600;2023-07-28T00:33:57;95297.88;;;14.57;78.54
40245;BME280;25963;42.694;23.600;2023-07-28T00:36:23;95297.91;;;14.74;78.64
40245;BME280;25963;42.694;23.600;2023-07-28T00:38:48;95272.31;;;14.39;77.73
40245;BME280;25963;42.694;23.600;2023-07-28T00:41:14;95279.31;;;14.17;78.81
40245;BME280;25963;42.694;23.600;2023-07-28T00:43:39;95298.53;;;14.36;80.18
40245;BME280;25963;42.694;23.600;2023-07-28T00:46:04;95302.78;;;14.37;78.75
40245;BME280;25963;42.694;23.600;2023-07-28T00:48:30;95287.09;;;14.35;78.25
40245;BME280;25963;42.694;23.600;2023-07-28T00:50:55;95289.91;;;14.29;78.72
40245;BME280;25963;42.694;23.600;2023-07-28T00:53:23;95292.94;;;14.49;78.70
40245;BME280;25963;42.694;23.600;2023-07-28T00:55:49;95290.00;;;14.63;79.23
40245;BME280;25963;42.694;23.600;2023-07-28T00:58:14;95289.94;;;14.57;78.13
40245;BME280;25963;42.694;23.600;2023-07-28T01:00:39;95289.13;;;14.57;80.73
40245;BME280;25963;42.694;23.600;2023-07-28T01:03:05;95294.53;;;14.50;81.27
40245;BME280;25963;42.694;23.600;2023-07-28T01:11:10;95288.19;;;14.23;78.71
40245;BME280;25963;42.694;23.600;2023-07-28T01:13:36;95288.03;;;14.29;78.45
40245;BME280;25963;42.694;23.600;2023-07-28T01:16:01;95288.69;;;14.08;78.91
40245;BME280;25963;42.694;23.600;2023-07-28T01:18:27;95279.50;;;13.99;79.24
40245;BME280;25963;42.694;23.600;2023-07-28T01:20:55;95291.84;;;13.93;79.59
40245;BME280;25963;42.694;23.600;2023-07-28T01:24:29;95303.16;;;14.00;80.92
40245;BME280;25963;42.694;23.600;2023-07-28T01:26:48;95315.44;;;13.66;81.57
40245;BME280;25963;42.694;23.600;2023-07-28T01:29:16;95305.16;;;13.69;81.70
40245;BME280;25963;42.694;23.600;2023-07-28T01:31:41;95287.06;;;13.78;79.82
40245;BME280;25963;42.694;23.600;2023-07-28T01:34:07;95279.06;;;13.90;79.17
40245;BME280;25963;42.694;23.600;2023-07-28T01:36:32;95293.44;;;14.06;78.91
40245;BME280;25963;42.694;23.600;2023-07-28T01:38:58;95276.72;;;13.65;80.60
40245;BME280;25963;42.694;23.600;2023-07-28T01:41:23;95281.22;;;13.64;81.20
40245;BME280;25963;42.694;23.600;2023-07-28T01:43:49;95284.88;;;13.63;81.39
40245;BME280;25963;42.694;23.600;2023-07-28T01:46:14;95282.69;;;12.90;84.88
40245;BME280;25963;42.694;23.600;2023-07-28T01:48:40;95286.91;;;12.67;86.58
40245;BME280;25963;42.694;23.600;2023-07-28T01:51:05;95290.28;;;13.10;84.66
40245;BME280;25963;42.694;23.600;2023-07-28T01:53:30;95265.19;;;13.12;84.50
40245;BME280;25963;42.694;23.600;2023-07-28T01:55:56;95278.25;;;13.26;82.92
40245;BME280;25963;42.694;23.600;2023-07-28T01:58:21;95266.38;;;13.16;82.98
40245;BME280;25963;42.694;23.600;2023-07-28T02:00:47;95262.56;;;13.12;84.06
40245;BME280;25963;42.694;23.600;2023-07-28T02:03:12;95261.75;;;13.47;82.02
40245;BME280;25963;42.694;23.600;2023-07-28T02:05:38;95289.03;;;13.71;81.10
40245;BME280;25963;42.694;23.600;2023-07-28T02:08:04;95274.22;;;13.46;81.11
40245;BME280;25963;42.694;23.600;2023-07-28T02:10:29;95284.34;;;13.50;80.83
40245;BME280;25963;42.694;23.600;2023-07-28T02:12:55;95293.53;;;13.12;83.04
40245;BME280;25963;42.694;23.600;2023-07-28T02:15:20;95269.22;;;13.15;82.82
40245;BME280;25963;42.694;23.600;2023-07-28T02:17:46;95284.56;;;13.36;82.28
40245;BME280;25963;42.694;23.600;2023-07-28T02:20:11;95279.97;;;13.32;82.61
40245;BME280;25963;42.694;23.600;2023-07-28T02:22:39;95294.47;;;13.53;84.91
40245;BME280;25963;42.694;23.600;2023-07-28T02:25:05;95275.38;;;13.27;85.11
40245;BME280;25963;42.694;23.600;2023-07-28T02:27:31;95282.16;;;13.35;85.50
40245;BME280;25963;42.694;23.600;2023-07-28T02:29:56;95277.34;;;13.32;85.29
40245;BME280;25963;42.694;23.600;2023-07-28T02:32:22;95279.50;;;13.46;84.63
40245;BME280;25963;42.694;23.600;2023-07-28T02:34:47;95278.94;;;13.44;83.89
40245;BME280;25963;42.694;23.600;2023-07-28T02:37:14;95301.63;;;13.52;82.96
40245;BME280;25963;42.694;23.600;2023-07-28T02:39:40;95293.91;;;13.39;83.88
40245;BME280;25963;42.694;23.600;2023-07-28T02:42:05;95316.25;;;13.43;83.83
40245;BME280;25963;42.694;23.600;2023-07-28T02:44:31;95310.59;;;13.51;82.34
40245;BME280;25963;42.694;23.600;2023-07-28T02:46:57;95293.22;;;13.32;82.05
40245;BME280;25963;42.694;23.600;2023-07-28T02:49:22;95302.53;;;13.22;82.73
40245;BME280;25963;42.694;23.600;2023-07-28T02:51:48;95300.25;;;13.26;81.17
40245;BME280;25963;42.694;23.600;2023-07-28T02:54:13;95301.72;;;13.34;80.83
40245;BME280;25963;42.694;23.600;2023-07-28T02:56:39;95285.75;;;13.40;79.56
40245;BME280;25963;42.694;23.600;2023-07-28T02:59:05;95308.03;;;13.21;80.68
40245;BME280;25963;42.694;23.600;2023-07-28T03:01:30;95308.75;;;13.05;81.75
40245;BME280;25963;42.694;23.600;2023-07-28T03:04:03;95285.34;;;12.90;81.61
40245;BME280;25963;42.694;23.600;2023-07-28T03:06:29;95307.22;;;13.09;82.99
40245;BME280;25963;42.694;23.600;2023-07-28T03:08:54;95283.72;;;12.89;83.70
40245;BME280;25963;42.694;23.600;2023-07-28T03:11:20;95292.84;;;12.93;82.08
40245;BME280;25963;42.694;23.600;2023-07-28T03:13:45;95285.13;;;13.03;82.11
40245;BME280;25963;42.694;23.600;2023-07-28T03:16:11;95305.63;;;13.19;81.56
40245;BME280;25963;42.694;23.600;2023-07-28T03:18:37;95318.97;;;13.24;81.75
40245;BME280;25963;42.694;23.600;2023-07-28T03:21:02;95291.78;;;12.94;81.78
40245;BME280;25963;42.694;23.600;2023-07-28T03:23:27;95307.13;;;13.15;83.27
40245;BME280;25963;42.694;23.600;2023-07-28T03:25:53;95303.19;;;13.06;84.59
40245;BME280;25963;42.694;23.600;2023-07-28T03:28:18;95312.66;;;13.14;84.67
40245;BME280;25963;42.694;23.600;2023-07-28T03:30:44;95305.63;;;13.19;83.89
40245;BME280;25963;42.694;23.600;2023-07-28T03:33:09;95313.00;;;13.17;82.83
40245;BME280;25963;42.694;23.600;2023-07-28T03:35:35;95331.47;;;13.36;83.22
40245;BME280;25963;42.694;23.600;2023-07-28T03:38:00;95315.97;;;13.09;84.27
40245;BME280;25963;42.694;23.600;2023-07-28T03:40:26;95321.88;;;13.23;83.44
40245;BME280;25963;42.694;23.600;2023-07-28T03:42:52;95322.00;;;13.40;82.63
40245;BME280;25963;42.694;23.600;2023-07-28T03:45:18;95315.91;;;13.39;80.97
40245;BME280;25963;42.694;23.600;2023-07-28T03:47:43;95323.84;;;13.75;81.05
40245;BME280;25963;42.694;23.600;2023-07-28T03:50:09;95306.81;;;13.59;80.37
40245;BME280;25963;42.694;23.600;2023-07-28T03:52:34;95332.97;;;13.55;81.34
40245;BME280;25963;42.694;23.600;2023-07-28T03:55:00;95315.28;;;13.73;81.06
40245;BME280;25963;42.694;23.600;2023-07-28T03:57:25;95327.75;;;13.84;81.01
40245;BME280;25963;42.694;23.600;2023-07-28T03:59:51;95310.91;;;13.78;81.31
40245;BME280;25963;42.694;23.600;2023-07-28T04:02:16;95327.28;;;13.63;83.60
40245;BME280;25963;42.694;23.600;2023-07-28T04:04:41;95329.19;;;14.15;81.98
40245;BME280;25963;42.694;23.600;2023-07-28T04:07:07;95320.69;;;14.01;82.56
40245;BME280;25963;42.694;23.600;2023-07-28T04:09:32;95314.56;;;14.29;81.59
40245;BME280;25963;42.694;23.600;2023-07-28T04:11:58;95309.22;;;14.41;81.46
40245;BME280;25963;42.694;23.600;2023-07-28T04:14:23;95311.78;;;14.93;79.37
40245;BME280;25963;42.694;23.600;2023-07-28T04:16:48;95306.19;;;16.50;72.60
40245;BME280;25963;42.694;23.600;2023-07-28T04:19:14;95298.63;;;17.71;64.29
40245;BME280;25963;42.694;23.600;2023-07-28T04:21:39;95291.00;;;18.58;59.54
40245;BME280;25963;42.694;23.600;2023-07-28T04:24:08;95293.34;;;19.92;54.02
40245;BME280;25963;42.694;23.600;2023-07-28T04:26:34;95299.53;;;20.58;50.69
40245;BME280;25963;42.694;23.600;2023-07-28T04:29:00;95307.16;;;20.30;50.17
40245;BME280;25963;42.694;23.600;2023-07-28T04:31:26;95316.94;;;21.05;48.71
40245;BME280;25963;42.694;23.600;2023-07-28T04:33:51;95312.94;;;21.65;46.11
40245;BME280;25963;42.694;23.600;2023-07-28T04:36:17;95300.56;;;21.06;46.71
40245;BME280;25963;42.694;23.600;2023-07-28T04:38:42;95329.78;;;21.76;45.60
40245;BME280;25963;42.694;23.600;2023-07-28T04:41:07;95314.56;;;22.44;43.42
40245;BME280;25963;42.694;23.600;2023-07-28T04:43:33;95333.03;;;23.26;41.41
40245;BME280;25963;42.694;23.600;2023-07-28T04:45:58;95321.28;;;24.15;39.38
40245;BME280;25963;42.694;23.600;2023-07-28T04:48:24;95324.19;;;24.96;38.35
40245;BME280;25963;42.694;23.600;2023-07-28T04:50:49;95315.31;;;25.63;36.33
40245;BME280;25963;42.694;23.600;2023-07-28T04:53:15;95309.00;;;25.99;34.67
40245;BME280;25963;42.694;23.600;2023-07-28T04:55:40;95314.25;;;25.05;36.50
40245;BME280;25963;42.694;23.600;2023-07-28T04:58:06;95306.97;;;25.51;36.90
40245;BME280;25963;42.694;23.600;2023-07-28T05:00:31;95303.66;;;25.54;36.41
40245;BME280;25963;42.694;23.600;2023-07-28T05:02:57;95313.63;;;24.86;38.36
40245;BME280;25963;42.694;23.600;2023-07-28T05:05:22;95323.69;;;25.53;37.25
40245;BME280;25963;42.694;23.600;2023-07-28T05:07:48;95322.13;;;25.16;38.55
40245;BME280;25963;42.694;23.600;2023-07-28T05:10:13;95332.16;;;26.23;36.53
40245;BME280;25963;42.694;23.600;2023-07-28T05:12:39;95326.19;;;26.43;35.93
40245;BME280;25963;42.694;23.600;2023-07-28T05:15:05;95330.13;;;27.12;35.36
40245;BME280;25963;42.694;23.600;2023-07-28T05:17:31;95325.84;;;27.02;34.51
40245;BME280;25963;42.694;23.600;2023-07-28T05:19:56;95322.63;;;26.82;34.54
40245;BME280;25963;42.694;23.600;2023-07-28T05:22:22;95324.69;;;27.72;34.31
40245;BME280;25963;42.694;23.600;2023-07-28T05:24:47;95308.28;;;27.69;33.54
40245;BME280;25963;42.694;23.600;2023-07-28T05:27:13;95315.16;;;27.58;33.14
40245;BME280;25963;42.694;23.600;2023-07-28T05:29:38;95322.88;;;27.94;33.16
40245;BME280;25963;42.694;23.600;2023-07-28T05:32:04;95312.38;;;27.92;32.69
40245;BME280;25963;42.694;23.600;2023-07-28T05:34:30;95310.53;;;28.14;32.13
40245;BME280;25963;42.694;23.600;2023-07-28T05:36:56;95318.84;;;27.53;33.36
40245;BME280;25963;42.694;23.600;2023-07-28T05:39:21;95325.97;;;27.58;32.93
40245;BME280;25963;42.694;23.600;2023-07-28T05:41:47;95322.00;;;26.85;33.61
40245;BME280;25963;42.694;23.600;2023-07-28T05:44:13;95328.38;;;27.59;32.53
40245;BME280;25963;42.694;23.600;2023-07-28T05:46:38;95317.78;;;28.01;31.54
40245;BME280;25963;42.694;23.600;2023-07-28T05:49:04;95316.28;;;27.30;31.37
40245;BME280;25963;42.694;23.600;2023-07-28T05:51:30;95310.78;;;28.00;31.55
40245;BME280;25963;42.694;23.600;2023-07-28T05:53:55;95295.13;;;28.65;33.25
40245;BME280;25963;42.694;23.600;2023-07-28T05:56:21;95299.38;;;28.15;33.53
40245;BME280;25963;42.694;23.600;2023-07-28T05:58:48;95310.59;;;27.96;32.52
40245;BME280;25963;42.694;23.600;2023-07-28T06:01:14;95312.09;;;27.68;31.62
40245;BME280;25963;42.694;23.600;2023-07-28T06:03:40;95311.72;;;28.04;31.49
40245;BME280;25963;42.694;23.600;2023-07-28T06:06:05;95300.28;;;27.90;33.81
40245;BME280;25963;42.694;23.600;2023-07-28T06:08:31;95299.66;;;27.84;31.87
40245;BME280;25963;42.694;23.600;2023-07-28T06:10:56;95305.84;;;27.76;33.01
40245;BME280;25963;42.694;23.600;2023-07-28T06:13:22;95308.19;;;27.22;32.55
40245;BME280;25963;42.694;23.600;2023-07-28T06:15:47;95294.09;;;27.81;32.42
40245;BME280;25963;42.694;23.600;2023-07-28T06:18:13;95290.72;;;27.84;32.28
40245;BME280;25963;42.694;23.600;2023-07-28T06:20:41;95282.94;;;27.65;32.29
40245;BME280;25963;42.694;23.600;2023-07-28T06:23:07;95281.88;;;28.04;33.44
40245;BME280;25963;42.694;23.600;2023-07-28T06:25:32;95283.59;;;27.79;34.89
40245;BME280;25963;42.694;23.600;2023-07-28T06:27:58;95290.19;;;27.99;32.53
40245;BME280;25963;42.694;23.600;2023-07-28T06:30:23;95279.66;;;27.07;32.96
40245;BME280;25963;42.694;23.600;2023-07-28T06:32:49;95302.28;;;26.94;33.33
40245;BME280;25963;42.694;23.600;2023-07-28T06:35:14;95295.56;;;27.52;33.52
40245;BME280;25963;42.694;23.600;2023-07-28T06:37:40;95281.22;;;27.43;33.43
40245;BME280;25963;42.694;23.600;2023-07-28T06:40:06;95293.41;;;27.92;34.80
40245;BME280;25963;42.694;23.600;2023-07-28T06:42:34;95289.75;;;26.40;33.47
40245;BME280;25963;42.694;23.600;2023-07-28T06:44:59;95279.91;;;26.45;33.89
40245;BME280;25963;42.694;23.600;2023-07-28T06:47:25;95280.47;;;26.90;33.46
40245;BME280;25963;42.694;23.600;2023-07-28T06:49:50;95269.94;;;27.32;32.54
40245;BME280;25963;42.694;23.600;2023-07-28T06:52:16;95282.72;;;27.87;33.95
40245;BME280;25963;42.694;23.600;2023-07-28T06:54:41;95265.72;;;27.78;32.38
40245;BME280;25963;42.694;23.600;2023-07-28T06:57:06;95263.66;;;28.13;33.14
40245;BME280;25963;42.694;23.600;2023-07-28T06:59:32;95269.84;;;28.22;32.54
40245;BME280;25963;42.694;23.600;2023-07-28T07:01:58;95282.44;;;27.89;31.80
40245;BME280;25963;42.694;23.600;2023-07-28T07:04:23;95273.34;;;27.76;31.18
40245;BME280;25963;42.694;23.600;2023-07-28T07:06:49;95280.47;;;28.36;32.80
40245;BME280;25963;42.694;23.600;2023-07-28T07:09:14;95284.16;;;27.76;31.64
40245;BME280;25963;42.694;23.600;2023-07-28T07:11:40;95280.72;;;28.14;30.81
40245;BME280;25963;42.694;23.600;2023-07-28T07:14:06;95284.63;;;28.34;30.54
40245;BME280;25963;42.694;23.600;2023-07-28T07:16:32;95278.00;;;27.58;32.94
40245;BME280;25963;42.694;23.600;2023-07-28T07:18:58;95275.09;;;27.72;30.77
40245;BME280;25963;42.694;23.600;2023-07-28T07:21:23;95282.59;;;27.75;32.10
40245;BME280;25963;42.694;23.600;2023-07-28T07:23:49;95281.38;;;28.11;31.95
40245;BME280;25963;42.694;23.600;2023-07-28T07:26:14;95266.28;;;28.31;29.56
40245;BME280;25963;42.694;23.600;2023-07-28T07:28:40;95284.69;;;28.16;33.08
40245;BME280;25963;42.694;23.600;2023-07-28T07:31:12;95277.34;;;27.70;31.94
40245;BME280;25963;42.694;23.600;2023-07-28T07:33:38;95271.56;;;27.16;31.73
40245;BME280;25963;42.694;23.600;2023-07-28T07:36:03;95284.72;;;26.74;31.01
40245;BME280;25963;42.694;23.600;2023-07-28T07:38:29;95278.56;;;27.17;30.99
40245;BME280;25963;42.694;23.600;2023-07-28T07:40:54;95287.97;;;26.27;32.18
40245;BME280;25963;42.694;23.600;2023-07-28T07:43:19;95282.84;;;27.44;35.09
40245;BME280;25963;42.694;23.600;2023-07-28T07:45:46;95276.81;;;27.94;33.81
40245;BME280;25963;42.694;23.600;2023-07-28T07:48:12;95271.91;;;27.79;32.28
40245;BME280;25963;42.694;23.600;2023-07-28T07:50:38;95268.69;;;28.23;28.37
40245;BME280;25963;42.694;23.600;2023-07-28T07:53:04;95270.97;;;28.21;30.23
40245;BME280;25963;42.694;23.600;2023-07-28T07:55:30;95265.88;;;28.71;32.90
40245;BME280;25963;42.694;23.600;2023-07-28T07:57:57;95277.66;;;28.96;31.26
40245;BME280;25963;42.694;23.600;2023-07-28T08:00:22;95276.81;;;29.25;28.72
40245;BME280;25963;42.694;23.600;2023-07-28T08:02:49;95270.78;;;28.56;28.77
40245;BME280;25963;42.694;23.600;2023-07-28T08:05:14;95275.34;;;28.64;30.76
40245;BME280;25963;42.694;23.600;2023-07-28T08:07:40;95270.63;;;29.03;30.79
40245;BME280;25963;42.694;23.600;2023-07-28T08:10:06;95273.34;;;29.37;30.56
40245;BME280;25963;42.694;23.600;2023-07-28T08:12:32;95277.00;;;28.78;28.33
40245;BME280;25963;42.694;23.600;2023-07-28T08:14:57;95275.75;;;29.38;29.60
40245;BME280;25963;42.694;23.600;2023-07-28T08:17:23;95264.78;;;29.68;30.71
40245;BME280;25963;42.694;23.600;2023-07-28T08:19:48;95262.28;;;29.75;32.79
40245;BME280;25963;42.694;23.600;2023-07-28T08:22:14;95260.94;;;30.06;29.53
40245;BME280;25963;42.694;23.600;2023-07-28T08:24:39;95262.91;;;29.26;27.34
40245;BME280;25963;42.694;23.600;2023-07-28T08:27:05;95257.09;;;28.74;30.47
40245;BME280;25963;42.694;23.600;2023-07-28T08:29:31;95246.06;;;29.33;28.68
40245;BME280;25963;42.694;23.600;2023-07-28T08:31:56;95253.81;;;29.55;27.51
40245;BME280;25963;42.694;23.600;2023-07-28T08:34:22;95262.13;;;29.26;28.05
40245;BME280;25963;42.694;23.600;2023-07-28T08:36:47;95261.41;;;29.50;31.50
40245;BME280;25963;42.694;23.600;2023-07-28T08:39:13;95259.84;;;30.19;28.53
40245;BME280;25963;42.694;23.600;2023-07-28T08:41:40;95258.19;;;29.69;26.84
40245;BME280;25963;42.694;23.600;2023-07-28T08:44:07;95263.66;;;29.93;25.76
40245;BME280;25963;42.694;23.600;2023-07-28T08:46:32;95250.44;;;30.41;28.23
40245;BME280;25963;42.694;23.600;2023-07-28T08:48:59;95255.72;;;29.88;26.34
40245;BME280;25963;42.694;23.600;2023-07-28T08:51:25;95250.78;;;30.52;28.81
40245;BME280;25963;42.694;23.600;2023-07-28T08:53:50;95249.09;;;31.00;29.52
40245;BME280;25963;42.694;23.600;2023-07-28T08:56:16;95248.03;;;30.39;25.26
40245;BME280;25963;42.694;23.600;2023-07-28T08:58:41;95256.41;;;30.59;31.10
40245;BME280;25963;42.694;23.600;2023-07-28T09:01:07;95234.88;;;30.41;25.76
40245;BME280;25963;42.694;23.600;2023-07-28T09:03:32;95243.03;;;30.54;30.50
40245;BME280;25963;42.694;23.600;2023-07-28T09:06:02;95237.69;;;30.69;28.38
40245;BME280;25963;42.694;23.600;2023-07-28T09:08:31;95235.66;;;31.07;28.11
40245;BME280;25963;42.694;23.600;2023-07-28T09:11:01;95233.38;;;31.09;28.18
40245;BME280;25963;42.694;23.600;2023-07-28T09:13:35;95215.34;;;31.32;26.27
40245;BME280;25963;42.694;23.600;2023-07-28T09:16:01;95215.06;;;30.93;25.30
40245;BME280;25963;42.694;23.600;2023-07-28T09:18:26;95208.69;;;30.49;28.94
40245;BME280;25963;42.694;23.600;2023-07-28T09:20:55;95206.44;;;30.91;25.48
40245;BME280;25963;42.694;23.600;2023-07-28T09:23:28;95193.06;;;31.58;28.32
40245;BME280;25963;42.694;23.600;2023-07-28T09:26:01;95195.00;;;31.58;28.94
40245;BME280;25963;42.694;23.600;2023-07-28T09:28:38;95199.50;;;31.66;26.19
40245;BME280;25963;42.694;23.600;2023-07-28T09:31:06;95197.91;;;30.93;24.51
40245;BME280;25963;42.694;23.600;2023-07-28T09:33:34;95187.34;;;31.20;26.46
40245;BME280;25963;42.694;23.600;2023-07-28T09:36:10;95172.44;;;31.29;28.57
40245;BME280;25963;42.694;23.600;2023-07-28T09:38:38;95177.00;;;31.25;27.28
40245;BME280;25963;42.694;23.600;2023-07-28T09:41:05;95155.25;;;31.41;28.28
40245;BME280;25963;42.694;23.600;2023-07-28T09:43:34;95165.97;;;31.81;26.09
40245;BME280;25963;42.694;23.600;2023-07-28T09:46:02;95162.78;;;31.79;24.44
40245;BME280;25963;42.694;23.600;2023-07-28T09:48:31;95161.22;;;32.10;24.30
40245;BME280;25963;42.694;23.600;2023-07-28T09:50:58;95145.78;;;32.18;25.48
40245;BME280;25963;42.694;23.600;2023-07-28T09:53:27;95143.56;;;32.23;24.92
40245;BME280;25963;42.694;23.600;2023-07-28T09:55:54;95139.97;;;32.55;25.25
40245;BME280;25963;42.694;23.600;2023-07-28T09:58:21;95139.75;;;33.02;24.98
40245;BME280;25963;42.694;23.600;2023-07-28T10:00:50;95138.44;;;32.38;24.65
40245;BME280;25963;42.694;23.600;2023-07-28T10:03:16;95145.25;;;32.12;24.26
40245;BME280;25963;42.694;23.600;2023-07-28T10:05:42;95151.00;;;32.42;26.07
40245;BME280;25963;42.694;23.600;2023-07-28T10:08:09;95142.16;;;32.29;26.00
40245;BME280;25963;42.694;23.600;2023-07-28T10:10:35;95145.59;;;32.26;24.20
40245;BME280;25963;42.694;23.600;2023-07-28T10:13:01;95134.00;;;32.14;26.04
40245;BME280;25963;42.694;23.600;2023-07-28T10:15:30;95140.72;;;32.36;24.55
40245;BME280;25963;42.694;23.600;2023-07-28T10:17:57;95139.16;;;32.93;25.54
40245;BME280;25963;42.694;23.600;2023-07-28T10:20:38;95150.63;;;32.79;23.70
40245;BME280;25963;42.694;23.600;2023-07-28T10:25:33;95138.97;;;32.82;24.74
40245;BME280;25963;42.694;23.600;2023-07-28T10:28:00;95139.41;;;33.04;26.56
40245;BME280;25963;42.694;23.600;2023-07-28T10:30:27;95133.88;;;32.61;25.01
40245;BME280;25963;42.694;23.600;2023-07-28T10:32:55;95130.72;;;32.59;24.27
40245;BME280;25963;42.694;23.600;2023-07-28T10:35:25;95134.22;;;32.60;25.54
40245;BME280;25963;42.694;23.600;2023-07-28T10:37:53;95119.16;;;32.31;25.33
40245;BME280;25963;42.694;23.600;2023-07-28T10:42:54;95132.25;;;32.41;25.17
40245;BME280;25963;42.694;23.600;2023-07-28T10:45:21;95126.84;;;32.25;24.56
40245;BME280;25963;42.694;23.600;2023-07-28T10:47:48;95104.91;;;32.57;25.16
40245;BME280;25963;42.694;23.600;2023-07-28T10:50:14;95106.56;;;33.00;25.98
40245;BME280;25963;42.694;23.600;2023-07-28T10:52:43;95110.69;;;33.13;24.53
40245;BME280;25963;42.694;23.600;2023-07-28T10:57:41;95101.75;;;33.16;22.89
40245;BME280;25963;42.694;23.600;2023-07-28T11:00:07;95095.66;;;32.61;24.83
40245;BME280;25963;42.694;23.600;2023-07-28T11:02:33;95092.88;;;32.42;26.82
40245;BME280;25963;42.694;23.600;2023-07-28T11:05:06;95094.97;;;33.30;25.56
40245;BME280;25963;42.694;23.600;2023-07-28T11:07:32;95097.88;;;33.17;24.03
40245;BME280;25963;42.694;23.600;2023-07-28T11:10:01;95088.50;;;33.41;24.28
40245;BME280;25963;42.694;23.600;2023-07-28T11:12:26;95080.75;;;33.44;25.03
40245;BME280;25963;42.694;23.600;2023-07-28T11:14:52;95069.75;;;33.40;25.91
40245;BME280;25963;42.694;23.600;2023-07-28T11:17:17;95071.69;;;33.62;25.89
40245;BME280;25963;42.694;23.600;2023-07-28T11:19:43;95074.88;;;33.18;24.83
40245;BME280;25963;42.694;23.600;2023-07-28T11:22:08;95066.91;;;33.56;25.50
40245;BME280;25963;42.694;23.600;2023-07-28T11:24:34;95066.25;;;33.16;24.20
40245;BME280;25963;42.694;23.600;2023-07-28T11:26:59;95062.28;;;33.37;23.37
40245;BME280;25963;42.694;23.600;2023-07-28T11:29:28;95070.00;;;33.54;23.48
40245;BME280;25963;42.694;23.600;2023-07-28T11:31:53;95054.81;;;33.34;25.64
40245;BME280;25963;42.694;23.600;2023-07-28T11:34:19;95061.81;;;33.81;24.59
40245;BME280;25963;42.694;23.600;2023-07-28T11:36:45;95052.75;;;33.27;22.37
40245;BME280;25963;42.694;23.600;2023-07-28T11:39:11;95062.44;;;33.21;23.69
40245;BME280;25963;42.694;23.600;2023-07-28T11:41:36;95053.00;;;33.18;24.41
40245;BME280;25963;42.694;23.600;2023-07-28T11:44:04;95060.84;;;32.78;25.44
40245;BME280;25963;42.694;23.600;2023-07-28T11:49:15;95050.41;;;33.03;25.44
40245;BME280;25963;42.694;23.600;2023-07-28T11:51:43;95049.53;;;32.56;23.42
40245;BME280;25963;42.694;23.600;2023-07-28T11:54:18;95044.38;;;33.16;26.77
40245;BME280;25963;42.694;23.600;2023-07-28T11:56:48;95052.34;;;33.25;25.96
40245;BME280;25963;42.694;23.600;2023-07-28T11:59:15;95053.84;;;33.46;25.38
40245;BME280;25963;42.694;23.600;2023-07-28T12:02:10;95019.19;;;33.53;23.43
40245;BME280;25963;42.694;23.600;2023-07-28T12:04:42;95044.56;;;33.77;24.00
40245;BME280;25963;42.694;23.600;2023-07-28T12:12:15;95033.31;;;33.55;23.06
40245;BME280;25963;42.694;23.600;2023-07-28T12:14:41;95027.88;;;33.59;25.89
40245;BME280;25963;42.694;23.600;2023-07-28T12:17:24;95036.97;;;33.93;25.21
40245;BME280;25963;42.694;23.600;2023-07-28T12:20:04;95039.19;;;33.57;22.33
40245;BME280;25963;42.694;23.600;2023-07-28T12:22:40;95031.34;;;34.09;24.08
40245;BME280;25963;42.694;23.600;2023-07-28T12:25:06;95019.16;;;34.03;24.92
40245;BME280;25963;42.694;23.600;2023-07-28T12:27:32;95025.38;;;32.58;23.38
40245;BME280;25963;42.694;23.600;2023-07-28T12:29:57;95027.22;;;33.66;25.33
40245;BME280;25963;42.694;23.600;2023-07-28T12:32:23;95022.66;;;33.77;26.44
40245;BME280;25963;42.694;23.600;2023-07-28T12:34:50;95013.97;;;34.28;22.82
40245;BME280;25963;42.694;23.600;2023-07-28T12:37:16;95007.34;;;34.29;24.57
40245;BME280;25963;42.694;23.600;2023-07-28T12:39:41;94998.28;;;34.25;22.93
40245;BME280;25963;42.694;23.600;2023-07-28T12:42:08;95011.72;;;33.77;24.49
40245;BME280;25963;42.694;23.600;2023-07-28T12:44:34;95016.53;;;33.83;23.70
40245;BME280;25963;42.694;23.600;2023-07-28T12:47:00;95009.66;;;33.67;23.25
40245;BME280;25963;42.694;23.600;2023-07-28T12:49:26;95003.75;;;34.25;25.33
40245;BME280;25963;42.694;23.600;2023-07-28T12:51:51;94999.88;;;34.60;24.34
40245;BME280;25963;42.694;23.600;2023-07-28T12:54:17;94996.06;;;34.68;21.20
40245;BME280;25963;42.694;23.600;2023-07-28T12:56:42;94979.25;;;34.69;22.39
40245;BME280;25963;42.694;23.600;2023-07-28T12:59:08;94982.31;;;34.30;24.10
40245;BME280;25963;42.694;23.600;2023-07-28T13:01:37;94980.47;;;34.38;23.98
40245;BME280;25963;42.694;23.600;2023-07-28T13:04:03;94997.19;;;33.99;24.88
40245;BME280;25963;42.694;23.600;2023-07-28T13:06:28;94983.66;;;34.44;22.47
40245;BME280;25963;42.694;23.600;2023-07-28T13:08:53;94984.25;;;34.26;23.42